sensor_id;sensor_type;location;lat;lon;timestamp;temperature;humidity
44767;DHT22;30487;48.716;9.272;2024-03-25T00:02:09;5.10;99.90
44767;DHT22;30487;48.716;9.272;2024-03-25T00:04:35;5.00;99.90
44767;DHT22;30487;48.716;9.272;2024-03-25T00:07:01;5.10;99.90
44767;DHT22;30487;48.716;9.272;2024-03-25T00:09:27;5.10;99.90
44767;DHT22;30487;48.716;9.272;2024-03-25T00:11:53;5.10;99.90
44767;DHT22;30487;48.716;9.272;2024-03-25T00:14:23;5.10;99.90
44767;DHT22;30487;48.716;9.272;2024-03-25T00:16:49;5.10;99.90
44767;DHT22;30487;48.716;9.272;2024-03-25T00:19:15;5.10;99.90
44767;DHT22;30487;48.716;9.272;2024-03-25T00:21:40;5.10;99.90
44767;DHT22;30487;48.716;9.272;2024-03-25T00:24:07;5.10;99.90
44767;DHT22;30487;48.716;9.272;2024-03-25T00:26:33;5.10;99.90
44767;DHT22;30487;48.716;9.272;2024-03-25T00:28:58;5.20;99.90
44767;DHT22;30487;48.716;9.272;2024-03-25T00:31:24;5.20;99.90
44767;DHT22;30487;48.716;9.272;2024-03-25T00:33:50;5.20;99.90
44767;DHT22;30487;48.716;9.272;2024-03-25T00:36:15;5.20;99.90
44767;DHT22;30487;48.716;9.272;2024-03-25T00:38:41;5.20;99.90
44767;DHT22;30487;48.716;9.272;2024-03-25T00:41:08;5.20;99.90
44767;DHT22;30487;48.716;9.272;2024-03-25T00:43:34;5.20;99.90
44767;DHT22;30487;48.716;9.272;2024-03-25T00:46:00;5.20;99.90
44767;DHT22;30487;48.716;9.272;2024-03-25T00:48:25;5.10;99.90
44767;DHT22;30487;48.716;9.272;2024-03-25T00:50:51;5.10;99.90
44767;DHT22;30487;48.716;9.272;2024-03-25T00:53:16;5.20;99.90
44767;DHT22;30487;48.716;9.272;2024-03-25T00:55:44;5.20;99.90
44767;DHT22;30487;48.716;9.272;2024-03-25T00:58:09;5.10;99.90
44767;DHT22;30487;48.716;9.272;2024-03-25T01:00:35;5.20;99.90
44767;DHT22;30487;48.716;9.272;2024-03-25T01:03:01;5.20;99.90
44767;DHT22;30487;48.716;9.272;2024-03-25T01:05:27;5.20;99.90
44767;DHT22;30487;48.716;9.272;2024-03-25T01:07:53;5.10;99.90
44767;DHT22;30487;48.716;9.272;2024-03-25T01:10:18;5.10;99.90
44767;DHT22;30487;48.716;9.272;2024-03-25T01:12:44;5.10;99.90
44767;DHT22;30487;48.716;9.272;2024-03-25T01:15:10;5.20;99.90
44767;DHT22;30487;48.716;9.272;2024-03-25T01:17:39;5.20;99.90
44767;DHT22;30487;48.716;9.272;2024-03-25T01:20:05;5.10;99.90
44767;DHT22;30487;48.716;9.272;2024-03-25T01:22:31;5.20;99.90
44767;DHT22;30487;48.716;9.272;2024-03-25T01:24:57;5.20;99.90
44767;DHT22;30487;48.716;9.272;2024-03-25T01:27:23;5.10;99.90
44767;DHT22;30487;48.716;9.272;2024-03-25T01:29:48;5.20;99.90
44767;DHT22;30487;48.716;9.272;2024-03-25T01:32:14;5.10;99.90
44767;DHT22;30487;48.716;9.272;2024-03-25T01:34:40;5.10;99.90
44767;DHT22;30487;48.716;9.272;2024-03-25T01:37:05;5.10;99.90
44767;DHT22;30487;48.716;9.272;2024-03-25T01:39:31;5.10;99.90
44767;DHT22;30487;48.716;9.272;2024-03-25T01:41:56;5.20;99.90
44767;DHT22;30487;48.716;9.272;2024-03-25T01:44:22;5.10;99.90
44767;DHT22;30487;48.716;9.272;2024-03-25T01:46:48;5.20;99.90
44767;DHT22;30487;48.716;9.272;2024-03-25T01:49:14;5.20;99.90
44767;DHT22;30487;48.716;9.272;2024-03-25T01:51:40;5.10;99.90
44767;DHT22;30487;48.716;9.272;2024-03-25T01:54:07;5.10;99.90
44767;DHT22;30487;48.716;9.272;2024-03-25T01:56:35;5.20;99.90
44767;DHT22;30487;48.716;9.272;2024-03-25T01:59:02;5.10;99.90
44767;DHT22;30487;48.716;9.272;2024-03-25T02:01:29;5.10;99.90
44767;DHT22;30487;48.716;9.272;2024-03-25T02:03:55;5.10;99.90
44767;DHT22;30487;48.716;9.272;2024-03-25T02:06:21;5.10;99.90
44767;DHT22;30487;48.716;9.272;2024-03-25T02:08:48;5.10;99.90
44767;DHT22;30487;48.716;9.272;2024-03-25T02:11:14;5.10;99.90
44767;DHT22;30487;48.716;9.272;2024-03-25T02:13:40;5.10;99.90
44767;DHT22;30487;48.716;9.272;2024-03-25T02:16:06;5.10;99.90
44767;DHT22;30487;48.716;9.272;2024-03-25T02:18:32;5.10;99.90
44767;DHT22;30487;48.716;9.272;2024-03-25T02:20:58;5.10;99.90
44767;DHT22;30487;48.716;9.272;2024-03-25T02:23:25;5.10;99.90
44767;DHT22;30487;48.716;9.272;2024-03-25T02:25:52;5.10;99.90
44767;DHT22;30487;48.716;9.272;2024-03-25T02:28:18;5.10;99.90
44767;DHT22;30487;48.716;9.272;2024-03-25T02:30:43;5.10;99.90
44767;DHT22;30487;48.716;9.272;2024-03-25T02:33:09;5.10;99.90
44767;DHT22;30487;48.716;9.272;2024-03-25T02:35:35;5.10;99.90
44767;DHT22;30487;48.716;9.272;2024-03-25T02:38:02;5.00;99.90
44767;DHT22;30487;48.716;9.272;2024-03-25T02:40:29;5.10;99.90
44767;DHT22;30487;48.716;9.272;2024-03-25T02:42:55;5.00;99.90
44767;DHT22;30487;48.716;9.272;2024-03-25T02:45:20;5.00;99.90
44767;DHT22;30487;48.716;9.272;2024-03-25T02:47:47;5.10;99.90
44767;DHT22;30487;48.716;9.272;2024-03-25T02:50:13;5.10;99.90
44767;DHT22;30487;48.716;9.272;2024-03-25T02:52:38;5.10;99.90
44767;DHT22;30487;48.716;9.272;2024-03-25T02:55:04;5.10;99.90
44767;DHT22;30487;48.716;9.272;2024-03-25T02:57:30;5.10;99.90
44767;DHT22;30487;48.716;9.272;2024-03-25T02:59:55;5.10;99.90
44767;DHT22;30487;48.716;9.272;2024-03-25T03:02:21;5.10;99.90
44767;DHT22;30487;48.716;9.272;2024-03-25T03:04:47;5.10;99.90
44767;DHT22;30487;48.716;9.272;2024-03-25T03:07:12;5.10;99.90
44767;DHT22;30487;48.716;9.272;2024-03-25T03:09:38;5.10;99.90
44767;DHT22;30487;48.716;9.272;2024-03-25T03:12:04;5.10;99.90
44767;DHT22;30487;48.716;9.272;2024-03-25T03:14:30;5.10;99.90
44767;DHT22;30487;48.716;9.272;2024-03-25T03:16:55;5.10;99.90
44767;DHT22;30487;48.716;9.272;2024-03-25T03:19:25;5.10;99.90
44767;DHT22;30487;48.716;9.272;2024-03-25T03:21:51;5.10;99.90
44767;DHT22;30487;48.716;9.272;2024-03-25T03:24:16;5.10;99.90
44767;DHT22;30487;48.716;9.272;2024-03-25T03:26:42;5.10;99.90
44767;DHT22;30487;48.716;9.272;2024-03-25T03:29:07;5.10;99.90
44767;DHT22;30487;48.716;9.272;2024-03-25T03:31:33;5.10;99.90
44767;DHT22;30487;48.716;9.272;2024-03-25T03:33:59;5.10;99.90
44767;DHT22;30487;48.716;9.272;2024-03-25T03:36:24;5.10;99.90
44767;DHT22;30487;48.716;9.272;2024-03-25T03:38:51;5.00;99.90
44767;DHT22;30487;48.716;9.272;2024-03-25T03:41:17;5.10;99.90
44767;DHT22;30487;48.716;9.272;2024-03-25T03:43:42;5.10;99.90
44767;DHT22;30487;48.716;9.272;2024-03-25T03:46:08;5.00;99.90
44767;DHT22;30487;48.716;9.272;2024-03-25T03:48:33;5.00;99.90
44767;DHT22;30487;48.716;9.272;2024-03-25T03:51:01;5.00;99.90
44767;DHT22;30487;48.716;9.272;2024-03-25T03:53:26;5.00;99.90
44767;DHT22;30487;48.716;9.272;2024-03-25T03:55:55;5.00;99.90
44767;DHT22;30487;48.716;9.272;2024-03-25T03:58:22;5.00;99.90
44767;DHT22;30487;48.716;9.272;2024-03-25T04:00:47;4.90;99.90
44767;DHT22;30487;48.716;9.272;2024-03-25T04:03:13;4.90;99.90
44767;DHT22;30487;48.716;9.272;2024-03-25T04:05:39;4.90;99.90
44767;DHT22;30487;48.716;9.272;2024-03-25T04:08:05;4.90;99.90
44767;DHT22;30487;48.716;9.272;2024-03-25T04:10:30;4.90;99.90
44767;DHT22;30487;48.716;9.272;2024-03-25T04:12:56;4.90;99.90
44767;DHT22;30487;48.716;9.272;2024-03-25T04:15:22;4.90;99.90
44767;DHT22;30487;48.716;9.272;2024-03-25T04:17:48;4.90;99.90
44767;DHT22;30487;48.716;9.272;2024-03-25T04:20:17;4.90;99.90
44767;DHT22;30487;48.716;9.272;2024-03-25T04:22:46;4.80;99.90
44767;DHT22;30487;48.716;9.272;2024-03-25T04:25:13;4.80;99.90
44767;DHT22;30487;48.716;9.272;2024-03-25T04:27:42;4.80;99.90
44767;DHT22;30487;48.716;9.272;2024-03-25T04:30:08;4.80;99.90
44767;DHT22;30487;48.716;9.272;2024-03-25T04:32:35;4.80;99.90
44767;DHT22;30487;48.716;9.272;2024-03-25T04:35:02;4.80;99.90
44767;DHT22;30487;48.716;9.272;2024-03-25T04:37:28;4.80;99.90
44767;DHT22;30487;48.716;9.272;2024-03-25T04:39:55;4.70;99.90
44767;DHT22;30487;48.716;9.272;2024-03-25T04:42:22;4.80;99.90
44767;DHT22;30487;48.716;9.272;2024-03-25T04:44:48;4.80;99.90
44767;DHT22;30487;48.716;9.272;2024-03-25T04:47:13;4.80;99.90
44767;DHT22;30487;48.716;9.272;2024-03-25T04:49:40;4.80;99.90
44767;DHT22;30487;48.716;9.272;2024-03-25T04:52:06;4.80;99.90
44767;DHT22;30487;48.716;9.272;2024-03-25T04:54:32;4.80;99.90
44767;DHT22;30487;48.716;9.272;2024-03-25T04:56:57;4.80;99.90
44767;DHT22;30487;48.716;9.272;2024-03-25T04:59:23;4.80;99.90
44767;DHT22;30487;48.716;9.272;2024-03-25T05:01:49;4.80;99.90
44767;DHT22;30487;48.716;9.272;2024-03-25T05:04:15;4.80;99.90
44767;DHT22;30487;48.716;9.272;2024-03-25T05:06:40;4.80;99.90
44767;DHT22;30487;48.716;9.272;2024-03-25T05:09:06;4.80;99.90
44767;DHT22;30487;48.716;9.272;2024-03-25T05:11:32;4.80;99.90
44767;DHT22;30487;48.716;9.272;2024-03-25T05:13:59;4.80;99.90
44767;DHT22;30487;48.716;9.272;2024-03-25T05:16:24;4.80;99.90
44767;DHT22;30487;48.716;9.272;2024-03-25T05:18:50;4.80;99.90
44767;DHT22;30487;48.716;9.272;2024-03-25T05:21:15;4.80;99.90
44767;DHT22;30487;48.716;9.272;2024-03-25T05:23:41;4.70;99.90
44767;DHT22;30487;48.716;9.272;2024-03-25T05:26:07;4.80;99.90
44767;DHT22;30487;48.716;9.272;2024-03-25T05:28:32;4.80;99.90
44767;DHT22;30487;48.716;9.272;2024-03-25T05:31:05;4.80;99.90
44767;DHT22;30487;48.716;9.272;2024-03-25T05:33:31;4.80;99.90
44767;DHT22;30487;48.716;9.272;2024-03-25T05:35:58;4.80;99.90
44767;DHT22;30487;48.716;9.272;2024-03-25T05:38:24;4.80;99.90
44767;DHT22;30487;48.716;9.272;2024-03-25T05:40:49;4.80;99.90
44767;DHT22;30487;48.716;9.272;2024-03-25T05:43:15;4.90;99.90
44767;DHT22;30487;48.716;9.272;2024-03-25T05:45:40;4.90;99.90
44767;DHT22;30487;48.716;9.272;2024-03-25T05:48:06;4.90;99.90
44767;DHT22;30487;48.716;9.272;2024-03-25T05:50:32;4.90;99.90
44767;DHT22;30487;48.716;9.272;2024-03-25T05:52:57;4.90;99.90
44767;DHT22;30487;48.716;9.272;2024-03-25T05:55:23;4.90;99.90
44767;DHT22;30487;48.716;9.272;2024-03-25T05:57:48;4.90;99.90
44767;DHT22;30487;48.716;9.272;2024-03-25T06:00:14;4.90;99.90
44767;DHT22;30487;48.716;9.272;2024-03-25T06:02:40;5.00;99.90
44767;DHT22;30487;48.716;9.272;2024-03-25T06:05:05;5.00;99.90
44767;DHT22;30487;48.716;9.272;2024-03-25T06:07:31;5.00;99.90
44767;DHT22;30487;48.716;9.272;2024-03-25T06:09:57;5.10;99.90
44767;DHT22;30487;48.716;9.272;2024-03-25T06:12:22;5.00;99.90
44767;DHT22;30487;48.716;9.272;2024-03-25T06:14:48;5.10;99.90
44767;DHT22;30487;48.716;9.272;2024-03-25T06:17:13;5.10;99.90
44767;DHT22;30487;48.716;9.272;2024-03-25T06:19:39;5.20;99.90
44767;DHT22;30487;48.716;9.272;2024-03-25T06:22:05;5.20;99.90
44767;DHT22;30487;48.716;9.272;2024-03-25T06:24:30;5.20;99.90
44767;DHT22;30487;48.716;9.272;2024-03-25T06:26:56;5.30;99.90
44767;DHT22;30487;48.716;9.272;2024-03-25T06:29:21;5.30;99.90
44767;DHT22;30487;48.716;9.272;2024-03-25T06:31:47;5.40;99.90
44767;DHT22;30487;48.716;9.272;2024-03-25T06:34:31;5.50;99.90
44767;DHT22;30487;48.716;9.272;2024-03-25T06:36:57;5.60;99.90
44767;DHT22;30487;48.716;9.272;2024-03-25T06:39:23;5.70;99.90
44767;DHT22;30487;48.716;9.272;2024-03-25T06:41:48;5.80;99.90
44767;DHT22;30487;48.716;9.272;2024-03-25T06:44:14;5.90;99.90
44767;DHT22;30487;48.716;9.272;2024-03-25T06:46:39;5.90;99.90
44767;DHT22;30487;48.716;9.272;2024-03-25T06:49:05;6.10;99.90
44767;DHT22;30487;48.716;9.272;2024-03-25T06:51:30;6.20;99.90
44767;DHT22;30487;48.716;9.272;2024-03-25T06:53:56;6.40;99.90
44767;DHT22;30487;48.716;9.272;2024-03-25T06:56:22;6.50;99.90
44767;DHT22;30487;48.716;9.272;2024-03-25T06:58:47;6.60;99.90
44767;DHT22;30487;48.716;9.272;2024-03-25T07:01:13;6.60;99.90
44767;DHT22;30487;48.716;9.272;2024-03-25T07:03:38;6.70;99.90
44767;DHT22;30487;48.716;9.272;2024-03-25T07:06:04;6.70;99.90
44767;DHT22;30487;48.716;9.272;2024-03-25T07:08:31;6.70;99.90
44767;DHT22;30487;48.716;9.272;2024-03-25T07:10:57;6.80;99.90
44767;DHT22;30487;48.716;9.272;2024-03-25T07:13:22;6.70;99.90
44767;DHT22;30487;48.716;9.272;2024-03-25T07:15:48;6.70;99.90
44767;DHT22;30487;48.716;9.272;2024-03-25T07:18:14;6.80;99.90
44767;DHT22;30487;48.716;9.272;2024-03-25T07:20:40;6.80;99.90
44767;DHT22;30487;48.716;9.272;2024-03-25T07:23:05;6.90;99.90
44767;DHT22;30487;48.716;9.272;2024-03-25T07:25:31;7.00;99.90
44767;DHT22;30487;48.716;9.272;2024-03-25T07:27:57;7.30;99.90
44767;DHT22;30487;48.716;9.272;2024-03-25T07:30:23;7.70;99.90
44767;DHT22;30487;48.716;9.272;2024-03-25T07:32:58;8.10;99.90
44767;DHT22;30487;48.716;9.272;2024-03-25T07:35:24;8.50;99.90
44767;DHT22;30487;48.716;9.272;2024-03-25T07:37:50;8.70;99.90
44767;DHT22;30487;48.716;9.272;2024-03-25T07:40:17;8.90;99.90
44767;DHT22;30487;48.716;9.272;2024-03-25T07:42:43;9.00;99.90
44767;DHT22;30487;48.716;9.272;2024-03-25T07:45:09;9.00;99.90
44767;DHT22;30487;48.716;9.272;2024-03-25T07:47:34;8.90;99.90
44767;DHT22;30487;48.716;9.272;2024-03-25T07:50:00;9.20;99.90
44767;DHT22;30487;48.716;9.272;2024-03-25T07:52:26;9.60;99.90
44767;DHT22;30487;48.716;9.272;2024-03-25T07:54:53;10.10;99.90
44767;DHT22;30487;48.716;9.272;2024-03-25T07:57:18;10.60;99.90
44767;DHT22;30487;48.716;9.272;2024-03-25T07:59:45;10.60;99.90
44767;DHT22;30487;48.716;9.272;2024-03-25T08:02:10;10.40;99.90
44767;DHT22;30487;48.716;9.272;2024-03-25T08:04:36;10.10;99.90
44767;DHT22;30487;48.716;9.272;2024-03-25T08:07:02;10.00;99.90
44767;DHT22;30487;48.716;9.272;2024-03-25T08:09:28;10.30;99.90
44767;DHT22;30487;48.716;9.272;2024-03-25T08:11:54;10.90;99.90
44767;DHT22;30487;48.716;9.272;2024-03-25T08:14:20;11.60;99.90
44767;DHT22;30487;48.716;9.272;2024-03-25T08:16:45;12.00;99.90
44767;DHT22;30487;48.716;9.272;2024-03-25T08:19:11;12.20;99.90
44767;DHT22;30487;48.716;9.272;2024-03-25T08:21:36;12.50;99.90
44767;DHT22;30487;48.716;9.272;2024-03-25T08:24:02;12.90;99.90
44767;DHT22;30487;48.716;9.272;2024-03-25T08:26:28;13.20;99.40
44767;DHT22;30487;48.716;9.272;2024-03-25T08:28:53;13.40;99.10
44767;DHT22;30487;48.716;9.272;2024-03-25T08:31:19;13.60;98.10
44767;DHT22;30487;48.716;9.272;2024-03-25T08:33:44;13.70;97.20
44767;DHT22;30487;48.716;9.272;2024-03-25T08:36:10;13.70;97.00
44767;DHT22;30487;48.716;9.272;2024-03-25T08:38:35;14.00;96.60
44767;DHT22;30487;48.716;9.272;2024-03-25T08:41:01;14.30;96.20
44767;DHT22;30487;48.716;9.272;2024-03-25T08:43:27;14.50;95.60
44767;DHT22;30487;48.716;9.272;2024-03-25T08:45:52;14.90;94.70
44767;DHT22;30487;48.716;9.272;2024-03-25T08:48:18;15.20;94.40
44767;DHT22;30487;48.716;9.272;2024-03-25T08:50:43;15.60;93.70
44767;DHT22;30487;48.716;9.272;2024-03-25T08:53:09;15.80;92.30
44767;DHT22;30487;48.716;9.272;2024-03-25T08:55:34;16.10;92.20
44767;DHT22;30487;48.716;9.272;2024-03-25T08:58:00;16.50;91.90
44767;DHT22;30487;48.716;9.272;2024-03-25T09:00:26;17.00;91.20
44767;DHT22;30487;48.716;9.272;2024-03-25T09:02:53;17.40;90.30
44767;DHT22;30487;48.716;9.272;2024-03-25T09:05:19;17.80;87.30
44767;DHT22;30487;48.716;9.272;2024-03-25T09:07:45;17.90;86.40
44767;DHT22;30487;48.716;9.272;2024-03-25T09:10:15;18.10;82.40
44767;DHT22;30487;48.716;9.272;2024-03-25T09:12:59;18.10;81.00
44767;DHT22;30487;48.716;9.272;2024-03-25T09:15:25;18.20;80.60
44767;DHT22;30487;48.716;9.272;2024-03-25T09:17:50;18.60;81.20
44767;DHT22;30487;48.716;9.272;2024-03-25T09:20:16;18.90;80.10
44767;DHT22;30487;48.716;9.272;2024-03-25T09:22:44;19.30;78.00
44767;DHT22;30487;48.716;9.272;2024-03-25T09:25:10;19.20;77.50
44767;DHT22;30487;48.716;9.272;2024-03-25T09:27:36;18.60;78.40
44767;DHT22;30487;48.716;9.272;2024-03-25T09:30:03;17.80;77.90
44767;DHT22;30487;48.716;9.272;2024-03-25T09:32:34;17.00;79.10
44767;DHT22;30487;48.716;9.272;2024-03-25T09:34:59;16.40;79.40
44767;DHT22;30487;48.716;9.272;2024-03-25T09:37:25;15.80;79.40
44767;DHT22;30487;48.716;9.272;2024-03-25T09:39:52;15.40;81.10
44767;DHT22;30487;48.716;9.272;2024-03-25T09:42:28;15.20;79.80
44767;DHT22;30487;48.716;9.272;2024-03-25T09:44:57;15.30;80.90
44767;DHT22;30487;48.716;9.272;2024-03-25T09:47:23;16.10;80.50
44767;DHT22;30487;48.716;9.272;2024-03-25T09:49:49;16.80;79.40
44767;DHT22;30487;48.716;9.272;2024-03-25T09:52:15;16.90;77.70
44767;DHT22;30487;48.716;9.272;2024-03-25T09:54:41;16.60;77.00
44767;DHT22;30487;48.716;9.272;2024-03-25T09:57:08;16.20;77.20
44767;DHT22;30487;48.716;9.272;2024-03-25T09:59:34;16.00;78.30
44767;DHT22;30487;48.716;9.272;2024-03-25T10:02:01;16.00;79.20
44767;DHT22;30487;48.716;9.272;2024-03-25T10:04:27;16.70;77.20
44767;DHT22;30487;48.716;9.272;2024-03-25T10:06:53;17.70;77.00
44767;DHT22;30487;48.716;9.272;2024-03-25T10:09:19;18.20;75.20
44767;DHT22;30487;48.716;9.272;2024-03-25T10:11:47;18.70;74.30
44767;DHT22;30487;48.716;9.272;2024-03-25T10:14:17;19.40;71.20
44767;DHT22;30487;48.716;9.272;2024-03-25T10:16:44;20.20;67.80
44767;DHT22;30487;48.716;9.272;2024-03-25T10:19:10;20.80;66.80
44767;DHT22;30487;48.716;9.272;2024-03-25T10:21:36;21.20;65.90
44767;DHT22;30487;48.716;9.272;2024-03-25T10:24:04;21.50;65.20
44767;DHT22;30487;48.716;9.272;2024-03-25T10:26:32;21.80;64.10
44767;DHT22;30487;48.716;9.272;2024-03-25T10:29:07;21.70;61.40
44767;DHT22;30487;48.716;9.272;2024-03-25T10:31:33;21.60;61.40
44767;DHT22;30487;48.716;9.272;2024-03-25T10:34:02;21.00;61.30
44767;DHT22;30487;48.716;9.272;2024-03-25T10:36:28;21.10;60.90
44767;DHT22;30487;48.716;9.272;2024-03-25T10:38:56;21.50;60.60
44767;DHT22;30487;48.716;9.272;2024-03-25T10:41:23;21.30;59.60
44767;DHT22;30487;48.716;9.272;2024-03-25T10:43:52;20.90;60.50
44767;DHT22;30487;48.716;9.272;2024-03-25T10:46:20;20.90;61.80
44767;DHT22;30487;48.716;9.272;2024-03-25T10:49:16;21.50;62.00
44767;DHT22;30487;48.716;9.272;2024-03-25T10:51:44;21.90;60.70
44767;DHT22;30487;48.716;9.272;2024-03-25T10:54:10;21.00;60.00
44767;DHT22;30487;48.716;9.272;2024-03-25T10:56:37;20.30;61.30
44767;DHT22;30487;48.716;9.272;2024-03-25T10:59:04;19.90;60.80
44767;DHT22;30487;48.716;9.272;2024-03-25T11:01:31;20.50;61.20
44767;DHT22;30487;48.716;9.272;2024-03-25T11:03:57;21.30;60.90
44767;DHT22;30487;48.716;9.272;2024-03-25T11:06:23;21.30;60.30
44767;DHT22;30487;48.716;9.272;2024-03-25T11:08:56;22.10;59.30
44767;DHT22;30487;48.716;9.272;2024-03-25T11:11:23;23.10;58.60
44767;DHT22;30487;48.716;9.272;2024-03-25T11:13:49;24.00;57.60
44767;DHT22;30487;48.716;9.272;2024-03-25T11:16:26;24.60;57.10
44767;DHT22;30487;48.716;9.272;2024-03-25T11:18:54;25.40;56.10
44767;DHT22;30487;48.716;9.272;2024-03-25T11:21:25;25.20;55.10
44767;DHT22;30487;48.716;9.272;2024-03-25T11:23:50;24.10;54.70
44767;DHT22;30487;48.716;9.272;2024-03-25T11:26:22;23.80;54.20
44767;DHT22;30487;48.716;9.272;2024-03-25T11:28:49;22.90;54.60
44767;DHT22;30487;48.716;9.272;2024-03-25T11:31:15;21.80;55.40
44767;DHT22;30487;48.716;9.272;2024-03-25T11:33:42;21.00;56.20
44767;DHT22;30487;48.716;9.272;2024-03-25T11:36:09;20.30;56.60
44767;DHT22;30487;48.716;9.272;2024-03-25T11:38:34;19.70;57.00
44767;DHT22;30487;48.716;9.272;2024-03-25T11:41:00;19.20;57.80
44767;DHT22;30487;48.716;9.272;2024-03-25T11:43:26;19.00;58.30
44767;DHT22;30487;48.716;9.272;2024-03-25T11:45:52;18.70;58.30
44767;DHT22;30487;48.716;9.272;2024-03-25T11:48:19;19.30;58.90
44767;DHT22;30487;48.716;9.272;2024-03-25T11:50:46;21.00;57.80
44767;DHT22;30487;48.716;9.272;2024-03-25T11:53:13;22.20;56.90
44767;DHT22;30487;48.716;9.272;2024-03-25T11:55:39;23.50;55.10
44767;DHT22;30487;48.716;9.272;2024-03-25T11:58:05;24.40;53.80
44767;DHT22;30487;48.716;9.272;2024-03-25T12:00:31;23.70;53.70
44767;DHT22;30487;48.716;9.272;2024-03-25T12:02:57;22.20;54.10
44767;DHT22;30487;48.716;9.272;2024-03-25T12:05:22;21.70;54.40
44767;DHT22;30487;48.716;9.272;2024-03-25T12:07:48;22.50;54.90
44767;DHT22;30487;48.716;9.272;2024-03-25T12:10:15;23.60;54.10
44767;DHT22;30487;48.716;9.272;2024-03-25T12:13:00;24.80;53.30
44767;DHT22;30487;48.716;9.272;2024-03-25T12:15:25;25.60;52.30
44767;DHT22;30487;48.716;9.272;2024-03-25T12:17:52;26.10;50.80
44767;DHT22;30487;48.716;9.272;2024-03-25T12:20:19;26.40;49.40
44767;DHT22;30487;48.716;9.272;2024-03-25T12:22:45;26.30;49.60
44767;DHT22;30487;48.716;9.272;2024-03-25T12:25:10;26.60;48.10
44767;DHT22;30487;48.716;9.272;2024-03-25T12:27:37;26.70;49.20
44767;DHT22;30487;48.716;9.272;2024-03-25T12:30:08;26.70;48.70
44767;DHT22;30487;48.716;9.272;2024-03-25T12:32:38;26.70;48.30
44767;DHT22;30487;48.716;9.272;2024-03-25T12:35:08;26.70;48.40
44767;DHT22;30487;48.716;9.272;2024-03-25T12:37:36;26.40;47.00
44767;DHT22;30487;48.716;9.272;2024-03-25T12:40:02;26.50;46.60
44767;DHT22;30487;48.716;9.272;2024-03-25T12:42:30;26.70;46.70
44767;DHT22;30487;48.716;9.272;2024-03-25T12:44:55;26.80;46.10
44767;DHT22;30487;48.716;9.272;2024-03-25T12:47:21;26.70;46.50
44767;DHT22;30487;48.716;9.272;2024-03-25T12:49:47;26.90;47.30
44767;DHT22;30487;48.716;9.272;2024-03-25T12:52:12;27.20;46.90
44767;DHT22;30487;48.716;9.272;2024-03-25T12:54:38;27.10;47.10
44767;DHT22;30487;48.716;9.272;2024-03-25T12:57:05;27.20;47.00
44767;DHT22;30487;48.716;9.272;2024-03-25T12:59:30;26.90;47.00
44767;DHT22;30487;48.716;9.272;2024-03-25T13:01:56;25.80;47.00
44767;DHT22;30487;48.716;9.272;2024-03-25T13:04:22;25.70;47.00
44767;DHT22;30487;48.716;9.272;2024-03-25T13:06:47;26.00;46.70
44767;DHT22;30487;48.716;9.272;2024-03-25T13:09:13;26.10;45.60
44767;DHT22;30487;48.716;9.272;2024-03-25T13:11:38;26.10;44.70
44767;DHT22;30487;48.716;9.272;2024-03-25T13:14:04;26.00;44.80
44767;DHT22;30487;48.716;9.272;2024-03-25T13:16:32;25.90;45.00
44767;DHT22;30487;48.716;9.272;2024-03-25T13:18:58;25.90;45.50
44767;DHT22;30487;48.716;9.272;2024-03-25T13:21:24;26.10;45.50
44767;DHT22;30487;48.716;9.272;2024-03-25T13:23:51;26.00;45.30
44767;DHT22;30487;48.716;9.272;2024-03-25T13:26:17;26.10;45.30
44767;DHT22;30487;48.716;9.272;2024-03-25T13:28:42;26.30;45.10
44767;DHT22;30487;48.716;9.272;2024-03-25T13:31:08;26.20;44.40
44767;DHT22;30487;48.716;9.272;2024-03-25T13:33:34;26.20;44.20
44767;DHT22;30487;48.716;9.272;2024-03-25T13:35:59;26.00;43.80
44767;DHT22;30487;48.716;9.272;2024-03-25T13:38:25;25.70;44.80
44767;DHT22;30487;48.716;9.272;2024-03-25T13:40:52;25.70;46.10
44767;DHT22;30487;48.716;9.272;2024-03-25T13:43:18;25.80;45.70
44767;DHT22;30487;48.716;9.272;2024-03-25T13:45:48;25.90;45.90
44767;DHT22;30487;48.716;9.272;2024-03-25T13:48:15;25.80;45.50
44767;DHT22;30487;48.716;9.272;2024-03-25T13:50:41;25.80;46.30
44767;DHT22;30487;48.716;9.272;2024-03-25T13:53:07;25.50;46.80
44767;DHT22;30487;48.716;9.272;2024-03-25T13:55:33;25.80;45.90
44767;DHT22;30487;48.716;9.272;2024-03-25T13:57:59;25.80;45.80
44767;DHT22;30487;48.716;9.272;2024-03-25T14:00:24;25.70;46.00
44767;DHT22;30487;48.716;9.272;2024-03-25T14:02:52;25.50;46.40
44767;DHT22;30487;48.716;9.272;2024-03-25T14:05:18;25.50;46.40
44767;DHT22;30487;48.716;9.272;2024-03-25T14:07:43;25.50;46.60
44767;DHT22;30487;48.716;9.272;2024-03-25T14:10:09;25.60;45.80
44767;DHT22;30487;48.716;9.272;2024-03-25T14:12:36;25.10;46.20
44767;DHT22;30487;48.716;9.272;2024-03-25T14:15:02;24.90;46.60
44767;DHT22;30487;48.716;9.272;2024-03-25T14:17:28;24.90;47.40
44767;DHT22;30487;48.716;9.272;2024-03-25T14:19:56;25.00;46.60
44767;DHT22;30487;48.716;9.272;2024-03-25T14:22:21;24.80;45.90
44767;DHT22;30487;48.716;9.272;2024-03-25T14:24:47;24.60;46.70
44767;DHT22;30487;48.716;9.272;2024-03-25T14:27:13;24.60;46.70
44767;DHT22;30487;48.716;9.272;2024-03-25T14:29:39;24.40;46.90
44767;DHT22;30487;48.716;9.272;2024-03-25T14:32:05;24.50;47.10
44767;DHT22;30487;48.716;9.272;2024-03-25T14:34:30;24.20;46.50
44767;DHT22;30487;48.716;9.272;2024-03-25T14:36:56;24.00;46.60
44767;DHT22;30487;48.716;9.272;2024-03-25T14:39:22;23.60;46.30
44767;DHT22;30487;48.716;9.272;2024-03-25T14:41:49;23.40;47.30
44767;DHT22;30487;48.716;9.272;2024-03-25T14:44:15;23.20;48.20
44767;DHT22;30487;48.716;9.272;2024-03-25T14:46:40;23.00;48.10
44767;DHT22;30487;48.716;9.272;2024-03-25T14:49:06;22.80;47.90
44767;DHT22;30487;48.716;9.272;2024-03-25T14:51:31;22.60;47.50
44767;DHT22;30487;48.716;9.272;2024-03-25T14:53:57;22.40;48.00
44767;DHT22;30487;48.716;9.272;2024-03-25T14:56:23;22.40;48.60
44767;DHT22;30487;48.716;9.272;2024-03-25T14:58:49;22.40;47.80
44767;DHT22;30487;48.716;9.272;2024-03-25T15:01:14;22.40;48.10
44767;DHT22;30487;48.716;9.272;2024-03-25T15:03:40;22.20;47.90
44767;DHT22;30487;48.716;9.272;2024-03-25T15:06:05;22.10;48.10
44767;DHT22;30487;48.716;9.272;2024-03-25T15:08:31;21.90;48.70
44767;DHT22;30487;48.716;9.272;2024-03-25T15:10:57;21.80;48.30
44767;DHT22;30487;48.716;9.272;2024-03-25T15:13:23;21.50;49.10
44767;DHT22;30487;48.716;9.272;2024-03-25T15:15:48;21.40;49.40
44767;DHT22;30487;48.716;9.272;2024-03-25T15:18:14;21.30;49.00
44767;DHT22;30487;48.716;9.272;2024-03-25T15:20:39;21.30;48.60
44767;DHT22;30487;48.716;9.272;2024-03-25T15:23:05;21.10;49.00
44767;DHT22;30487;48.716;9.272;2024-03-25T15:25:32;20.80;49.80
44767;DHT22;30487;48.716;9.272;2024-03-25T15:27:57;20.60;49.60
44767;DHT22;30487;48.716;9.272;2024-03-25T15:30:23;20.40;49.80
44767;DHT22;30487;48.716;9.272;2024-03-25T15:32:49;20.30;50.00